METAR Data
IDs: Format: Raw Decoded Include TAF

Data at: 1522 UTC 21 Sep 2018

KOPL 211515Z AUTO 10007KT 10SM SCT017 29/25 A3004 RMK AO2 LTG DSNT SW T02940247
KOPL 211455Z AUTO 13004KT 10SM CLR 29/25 A3004 RMK AO2 T02890247
KOPL 211435Z AUTO 10SM CLR 28/25 A3004 RMK AO2 T02830246
KOPL 211415Z AUTO 11005KT 10SM CLR 28/25 A3004 RMK AO2 T02750245
KOPL 211355Z AUTO 11003KT 10SM CLR 27/24 A3005 RMK AO2 T02660240
KOPL 211335Z AUTO 12003KT 10SM SCT029 26/24 A3004 RMK AO2 T02600239
KOPL 211315Z AUTO 13004KT 10SM SCT029 SCT033 25/24 A3004 RMK AO2 T02540236
KOPL 211255Z AUTO 00000KT 10SM SCT032 25/24 A3004 RMK AO2 LTG DSNT S T02470235
KOPL 211235Z AUTO 00000KT 10SM CLR 24/23 A3004 RMK AO2 T02380233
KOPL 211215Z AUTO 00000KT 10SM CLR 23/23 A3003 RMK AO2 T02330230
KOPL 211155Z AUTO 00000KT 10SM CLR 23/23 A3002 RMK AO2 LTG DSNT S AND SW T02330230 10244 20231
KOPL 211135Z AUTO 00000KT 10SM CLR 23/23 A3001 RMK AO2 T02340230
KOPL 211115Z AUTO 00000KT 10SM CLR 23/23 A3001 RMK AO2 T02320230
KOPL 211055Z AUTO 00000KT 10SM CLR 23/23 A3001 RMK AO2 T02330230
KOPL 211035Z AUTO 00000KT 10SM CLR 23/23 A3001 RMK AO2 T02320230
KOPL 211015Z AUTO 00000KT 10SM CLR 24/23 A3000 RMK AO2 T02350230
KOPL 210955Z AUTO 00000KT 10SM CLR 24/23 A3000 RMK AO2 T02350230
KOPL 210935Z AUTO 00000KT 10SM CLR 24/23 A2999 RMK AO2 T02350230
KOPL 210915Z AUTO 00000KT 10SM CLR 24/23 A2999 RMK AO2 T02360230
KOPL 210855Z AUTO 00000KT 10SM SCT024 SCT029 SCT043 24/23 A2999 RMK AO2 T02370231
KOPL 210835Z AUTO 00000KT 10SM SCT024 SCT031 24/23 A2999 RMK AO2 T02400232
KOPL 210815Z AUTO 00000KT 10SM SCT031 24/23 A2999 RMK AO2 T02400232
KOPL 210755Z AUTO 14003KT 10SM SCT029 SCT035 24/23 A2999 RMK AO2 T02400232
KOPL 210735Z AUTO 00000KT 10SM CLR 24/23 A2999 RMK AO2 T02400231
KOPL 210715Z AUTO 00000KT 10SM CLR 24/23 A3000 RMK AO2 T02400231
KOPL 210655Z AUTO 15003KT 10SM CLR 24/23 A3000 RMK AO2 T02410231
KOPL 210635Z AUTO 15003KT 10SM CLR 24/23 A3000 RMK AO2 T02410231
KOPL 210615Z AUTO 14003KT 10SM CLR 24/23 A3001 RMK AO2 T02430232
KOPL 210555Z AUTO 15005KT 10SM CLR 24/23 A3001 RMK AO2 T02440232 10264 20244 403360210
KOPL 210535Z AUTO 14004KT 10SM CLR 25/23 A3001 RMK AO2 T02450232
KOPL 210515Z AUTO 14004KT 10SM CLR 25/23 A3001 RMK AO2 T02460231
KOPL 210455Z AUTO 14004KT 10SM CLR 25/23 A3002 RMK AO2 T02470232
KOPL 210435Z AUTO 16005KT 10SM CLR 25/23 A3002 RMK AO2 T02500231
KOPL 210415Z AUTO 15005KT 10SM CLR 25/23 A3002 RMK AO2 T02510231
KOPL 210355Z AUTO 16004KT 10SM CLR 25/23 A3002 RMK AO2 T02500230
KOPL 210335Z AUTO 16003KT 10SM CLR 25/23 A3002 RMK AO2 T02490232
KOPL 210315Z AUTO 15003KT 10SM CLR 25/23 A3001 RMK AO2 T02470232
KOPL 210255Z AUTO 00000KT 10SM CLR 25/23 A3001 RMK AO2 T02460230
KOPL 210235Z AUTO 00000KT 10SM CLR 25/23 A3000 RMK AO2 T02470228
KOPL 210215Z AUTO 00000KT 10SM CLR 25/23 A3000 RMK AO2 T02490229
KOPL 210155Z AUTO 14003KT 10SM CLR 25/23 A2998 RMK AO2 T02500230
KOPL 210135Z AUTO 00000KT 10SM CLR 25/23 A2998 RMK AO2 T02500229
KOPL 210115Z AUTO 00000KT 10SM CLR 25/23 A2997 RMK AO2 T02510233
KOPL 210055Z AUTO 00000KT 10SM CLR 25/23 A2996 RMK AO2 T02530232
KOPL 210035Z AUTO 18005KT 10SM CLR 26/23 A2996 RMK AO2 T02560228
KOPL 210015Z AUTO 00000KT 10SM CLR 26/23 A2996 RMK AO2 LTG DSNT W T02630227
KOPL 202355Z AUTO 00000KT 10SM CLR 26/23 A2996 RMK AO2 T02630227 10336 20257
KOPL 202335Z AUTO 00000KT 10SM CLR 27/23 A2996 RMK AO2 T02650225
KOPL 202315Z AUTO 00000KT 10SM CLR 27/22 A2996 RMK AO2 T02700222
KOPL 202255Z AUTO 31004KT 10SM SCT120 27/22 A2996 RMK AO2 T02700223
KOPL 202235Z AUTO 26006KT 10SM VCTS SCT090 SCT120 27/23 A2996 RMK AO2 LTG DSNT W T02660226
KOPL 202215Z AUTO 34004KT 10SM -VCTSDZ SCT032 SCT047 BKN075 28/22 A2996 RMK AO2 LTG DSNT W AND NW T02750224
KOPL 202155Z AUTO 13003KT 10SM -TSRA SCT034 BKN049 OVC070 26/23 A2997 RMK AO2 LTG DSNT SW THRU N T02640229
KOPL 202135Z AUTO 13015G24KT 10SM -TSRA BKN034 OVC040 27/22 A2998 RMK AO2 LTG DSNT ALQS T02650219
KOPL 202115Z AUTO 16022G26KT 10SM TS SCT030 BKN042 OVC049 30/23 A2996 RMK AO2 LTG DSNT ALQS T02950225
KOPL 202055Z AUTO 04003KT 10SM BKN042 BKN049 BKN070 31/23 A2995 RMK AO2 LTG DSNT S AND SW T03140227
KOPL 202035Z AUTO 11006KT 10SM SCT044 SCT065 BKN070 32/23 A2995 RMK AO2 LTG DSNT SE THRU W T03210226
KOPL 202015Z AUTO 12003KT 10SM SCT044 BKN050 34/22 A2995 RMK AO2 LTG DSNT SW T03350216
KOPL 201955Z AUTO 00000KT 10SM BKN044 BKN050 33/22 A2996 RMK AO2 LTG DSNT SW T03320221
KOPL 201935Z AUTO 00000KT 10SM SCT044 BKN050 BKN065 32/22 A2997 RMK AO2 T03220218
KOPL 201915Z AUTO 00000KT 10SM SCT042 SCT050 BKN100 32/22 A2998 RMK AO2 LTG DSNT SW T03170218
KOPL 201855Z AUTO 13005KT 10SM SCT044 SCT050 BKN070 32/22 A2998 RMK AO2 LTG DSNT SW T03180222
KOPL 201835Z AUTO 00000KT 10SM SCT046 SCT055 SCT065 32/21 A2999 RMK AO2 T03150214
KOPL 201815Z AUTO 19005KT 10SM SCT038 SCT049 SCT065 32/22 A3000 RMK AO2 T03230218
KOPL 201755Z AUTO 07004KT 10SM BKN038 BKN047 32/23 A3001 RMK AO2 T03220231 10322 20212
KOPL 201735Z AUTO 00000KT 10SM SCT036 SCT045 31/22 A3001 RMK AO2 T03050219
KOPL 201715Z AUTO 16004KT 10SM SCT034 31/23 A3002 RMK AO2 T03130225
KOPL 201655Z AUTO 18003KT 10SM CLR 31/23 A3002 RMK AO2 T03100225
KOPL 201635Z AUTO 00000KT 10SM CLR 30/22 A3003 RMK AO2 T03010224
KOPL 201615Z AUTO 15003KT 10SM CLR 30/23 A3004 RMK AO2 T03020228
KOPL 201555Z AUTO 08003KT 10SM CLR 29/23 A3004 RMK AO2 T02920226
KOPL 201535Z AUTO 11004KT 10SM CLR 29/23 A3003 RMK AO2 T02900231
KOPL 201515Z AUTO 11003KT 10SM CLR 28/23 A3003 RMK AO2 T02840228
KOPL 201455Z AUTO 00000KT 10SM CLR 28/23 A3003 RMK AO2 T02800226
KOPL 201435Z AUTO 00000KT 10SM CLR 27/23 A3003 RMK AO2 T02720225
KOPL 201415Z AUTO 00000KT 10SM CLR 26/22 A3002 RMK AO2 T02610221
KOPL 201355Z AUTO 10003KT 10SM CLR 26/22 A3002 RMK AO2 T02580223
KOPL 201335Z AUTO 10003KT 10SM CLR 25/22 A3001 RMK AO2 T02490220
KOPL 201315Z AUTO 11003KT 10SM CLR 24/22 A3001 RMK AO2 T02430219
KOPL 201255Z AUTO 00000KT 10SM CLR 23/22 A2999 RMK AO2 T02290215
KOPL 201235Z AUTO 00000KT 10SM CLR 22/21 A3000 RMK AO2 T02200213
KOPL 201215Z AUTO 00000KT 7SM CLR 21/21 A2999 RMK AO2 T02140210
KOPL 201155Z AUTO 00000KT 10SM CLR 21/21 A2998 RMK AO2 T02140209 10227 20210
KOPL 201135Z AUTO 10SM CLR 21/21 A2998 RMK AO2 T02140210
KOPL 201115Z AUTO 00000KT 10SM CLR 21/21 A2998 RMK AO2 T02130210
KOPL 201055Z AUTO 00000KT 10SM CLR 21/21 A2997 RMK AO2 T02130210
KOPL 201035Z AUTO 00000KT 7SM CLR 21/21 A2997 RMK AO2 T02120210
KOPL 201015Z AUTO 00000KT 5SM BR CLR 21/21 A2997 RMK AO2 T02100207
KOPL 200955Z AUTO 00000KT 7SM CLR 21/21 A2997 RMK AO2 T02110208
KOPL 200935Z AUTO 00000KT 7SM CLR 21/21 A2997 RMK AO2 T02130210
KOPL 200915Z AUTO 00000KT 7SM CLR 21/21 A2997 RMK AO2 T02120208
KOPL 200855Z AUTO 00000KT 10SM CLR 22/21 A2996 RMK AO2 T02150210
KOPL 200835Z AUTO 00000KT 7SM CLR 22/21 A2997 RMK AO2 T02150210
KOPL 200815Z AUTO 00000KT 10SM CLR 22/21 A2997 RMK AO2 T02170210
KOPL 200755Z AUTO 00000KT 10SM CLR 22/21 A2997 RMK AO2 T02180210
KOPL 200735Z AUTO 00000KT 10SM CLR 22/21 A2997 RMK AO2 T02200211
KOPL 200715Z AUTO 00000KT 10SM CLR 22/22 A2998 RMK AO2 T02220215
KOPL 200655Z AUTO 00000KT 10SM CLR 22/21 A2998 RMK AO2 T02200213
KOPL 200635Z AUTO 00000KT 10SM CLR 22/21 A2998 RMK AO2 T02210211
KOPL 200615Z AUTO 00000KT 10SM CLR 23/21 A2997 RMK AO2 T02270211
KOPL 200555Z AUTO 00000KT 10SM CLR 23/21 A2997 RMK AO2 T02250213 10251 20225 403450225
KOPL 200535Z AUTO 35003KT 10SM CLR 23/21 A2997 RMK AO2 T02250213
KOPL 200515Z AUTO 00000KT 10SM CLR 23/21 A2997 RMK AO2 T02280214
KOPL 200455Z AUTO 00000KT 10SM CLR 23/21 A2997 RMK AO2 T02280211
KOPL 200435Z AUTO 00000KT 10SM CLR 23/21 A2996 RMK AO2 T02330212
KOPL 200415Z AUTO 00000KT 10SM CLR 24/22 A2997 RMK AO2 T02360215
KOPL 200355Z AUTO 00000KT 10SM CLR 24/21 A2997 RMK AO2 T02400205
KOPL 200335Z AUTO 00000KT 10SM CLR 25/21 A2996 RMK AO2 T02450205